sensor_id;sensor_type;location;lat;lon;timestamp;P1;durP1;ratioP1;P2;durP2;ratioP2
72060;SDS011;59925;52.136;5.420;2024-03-22T00:01:41;36.65;;;18.95;;
72060;SDS011;59925;52.136;5.420;2024-03-22T00:04:07;33.13;;;17.63;;
72060;SDS011;59925;52.136;5.420;2024-03-22T00:06:32;33.90;;;17.47;;
72060;SDS011;59925;52.136;5.420;2024-03-22T00:08:58;34.05;;;18.02;;
72060;SDS011;59925;52.136;5.420;2024-03-22T00:11:23;34.80;;;17.10;;
72060;SDS011;59925;52.136;5.420;2024-03-22T00:13:49;36.93;;;17.17;;
72060;SDS011;59925;52.136;5.420;2024-03-22T00:16:14;32.92;;;16.83;;
72060;SDS011;59925;52.136;5.420;2024-03-22T00:18:40;35.63;;;18.67;;
72060;SDS011;59925;52.136;5.420;2024-03-22T00:21:05;36.33;;;18.27;;
72060;SDS011;59925;52.136;5.420;2024-03-22T00:23:31;36.33;;;17.40;;
72060;SDS011;59925;52.136;5.420;2024-03-22T00:25:56;38.13;;;17.90;;
72060;SDS011;59925;52.136;5.420;2024-03-22T00:28:22;35.17;;;16.13;;
72060;SDS011;59925;52.136;5.420;2024-03-22T00:30:47;36.22;;;18.50;;
72060;SDS011;59925;52.136;5.420;2024-03-22T00:33:13;33.87;;;16.57;;
72060;SDS011;59925;52.136;5.420;2024-03-22T00:35:38;36.77;;;18.93;;
72060;SDS011;59925;52.136;5.420;2024-03-22T00:38:04;36.77;;;17.30;;
72060;SDS011;59925;52.136;5.420;2024-03-22T00:40:29;34.75;;;17.15;;
72060;SDS011;59925;52.136;5.420;2024-03-22T00:42:55;38.23;;;18.33;;
72060;SDS011;59925;52.136;5.420;2024-03-22T00:45:21;35.77;;;17.60;;
72060;SDS011;59925;52.136;5.420;2024-03-22T00:47:46;41.83;;;19.08;;
72060;SDS011;59925;52.136;5.420;2024-03-22T00:50:12;34.87;;;17.53;;
72060;SDS011;59925;52.136;5.420;2024-03-22T00:52:38;33.38;;;17.65;;
72060;SDS011;59925;52.136;5.420;2024-03-22T00:55:04;39.78;;;18.15;;
72060;SDS011;59925;52.136;5.420;2024-03-22T00:57:30;36.87;;;19.07;;
72060;SDS011;59925;52.136;5.420;2024-03-22T00:59:56;37.58;;;17.88;;
72060;SDS011;59925;52.136;5.420;2024-03-22T01:02:21;37.90;;;17.90;;
72060;SDS011;59925;52.136;5.420;2024-03-22T01:04:48;37.40;;;18.75;;
72060;SDS011;59925;52.136;5.420;2024-03-22T01:07:13;37.65;;;17.52;;
72060;SDS011;59925;52.136;5.420;2024-03-22T01:09:39;37.37;;;18.27;;
72060;SDS011;59925;52.136;5.420;2024-03-22T01:12:05;38.50;;;17.67;;
72060;SDS011;59925;52.136;5.420;2024-03-22T01:14:30;38.43;;;18.10;;
72060;SDS011;59925;52.136;5.420;2024-03-22T01:16:56;38.97;;;18.00;;
72060;SDS011;59925;52.136;5.420;2024-03-22T01:19:22;36.77;;;17.77;;
72060;SDS011;59925;52.136;5.420;2024-03-22T01:21:48;38.50;;;17.47;;
72060;SDS011;59925;52.136;5.420;2024-03-22T01:24:14;36.83;;;17.65;;
72060;SDS011;59925;52.136;5.420;2024-03-22T01:26:40;36.57;;;17.73;;
72060;SDS011;59925;52.136;5.420;2024-03-22T01:29:05;34.72;;;17.20;;
72060;SDS011;59925;52.136;5.420;2024-03-22T01:31:31;37.03;;;18.03;;
72060;SDS011;59925;52.136;5.420;2024-03-22T01:33:56;34.77;;;17.27;;
72060;SDS011;59925;52.136;5.420;2024-03-22T01:36:22;38.65;;;18.08;;
72060;SDS011;59925;52.136;5.420;2024-03-22T01:38:47;37.77;;;17.23;;
72060;SDS011;59925;52.136;5.420;2024-03-22T01:41:13;34.57;;;16.80;;
72060;SDS011;59925;52.136;5.420;2024-03-22T01:43:38;33.23;;;17.27;;
72060;SDS011;59925;52.136;5.420;2024-03-22T01:46:04;38.65;;;17.17;;
72060;SDS011;59925;52.136;5.420;2024-03-22T01:48:33;42.05;;;19.35;;
72060;SDS011;59925;52.136;5.420;2024-03-22T01:50:59;42.40;;;18.00;;
72060;SDS011;59925;52.136;5.420;2024-03-22T01:53:27;36.78;;;17.83;;
72060;SDS011;59925;52.136;5.420;2024-03-22T01:55:52;38.33;;;19.20;;
72060;SDS011;59925;52.136;5.420;2024-03-22T01:58:18;41.10;;;19.97;;
72060;SDS011;59925;52.136;5.420;2024-03-22T02:00:44;38.23;;;18.23;;
72060;SDS011;59925;52.136;5.420;2024-03-22T02:03:09;39.80;;;17.77;;
72060;SDS011;59925;52.136;5.420;2024-03-22T02:05:35;40.60;;;19.23;;
72060;SDS011;59925;52.136;5.420;2024-03-22T02:08:00;36.03;;;17.88;;
72060;SDS011;59925;52.136;5.420;2024-03-22T02:10:26;37.43;;;18.20;;
72060;SDS011;59925;52.136;5.420;2024-03-22T02:12:52;36.30;;;17.88;;
72060;SDS011;59925;52.136;5.420;2024-03-22T02:15:17;37.87;;;17.73;;
72060;SDS011;59925;52.136;5.420;2024-03-22T02:17:43;36.67;;;18.20;;
72060;SDS011;59925;52.136;5.420;2024-03-22T02:20:08;37.35;;;17.02;;
72060;SDS011;59925;52.136;5.420;2024-03-22T02:22:35;37.67;;;18.23;;
72060;SDS011;59925;52.136;5.420;2024-03-22T02:25:01;35.78;;;18.27;;
72060;SDS011;59925;52.136;5.420;2024-03-22T02:27:26;39.13;;;17.60;;
72060;SDS011;59925;52.136;5.420;2024-03-22T02:29:52;39.07;;;17.77;;
72060;SDS011;59925;52.136;5.420;2024-03-22T02:32:17;37.15;;;17.45;;
72060;SDS011;59925;52.136;5.420;2024-03-22T02:34:43;35.97;;;18.07;;
72060;SDS011;59925;52.136;5.420;2024-03-22T02:37:08;38.63;;;18.27;;
72060;SDS011;59925;52.136;5.420;2024-03-22T02:39:34;35.90;;;19.10;;
72060;SDS011;59925;52.136;5.420;2024-03-22T02:41:59;37.07;;;18.37;;
72060;SDS011;59925;52.136;5.420;2024-03-22T02:44:25;41.75;;;19.83;;
72060;SDS011;59925;52.136;5.420;2024-03-22T02:46:50;39.63;;;19.43;;
72060;SDS011;59925;52.136;5.420;2024-03-22T02:49:16;42.20;;;19.53;;
72060;SDS011;59925;52.136;5.420;2024-03-22T02:51:41;42.67;;;20.50;;
72060;SDS011;59925;52.136;5.420;2024-03-22T02:54:07;43.38;;;20.85;;
72060;SDS011;59925;52.136;5.420;2024-03-22T02:56:32;40.87;;;20.83;;
72060;SDS011;59925;52.136;5.420;2024-03-22T02:58:58;41.17;;;20.20;;
72060;SDS011;59925;52.136;5.420;2024-03-22T03:01:23;44.25;;;21.25;;
72060;SDS011;59925;52.136;5.420;2024-03-22T03:03:49;42.00;;;21.00;;
72060;SDS011;59925;52.136;5.420;2024-03-22T03:06:14;41.87;;;20.47;;
72060;SDS011;59925;52.136;5.420;2024-03-22T03:08:41;40.72;;;20.88;;
72060;SDS011;59925;52.136;5.420;2024-03-22T03:11:07;39.33;;;19.37;;
72060;SDS011;59925;52.136;5.420;2024-03-22T03:13:32;41.42;;;20.33;;
72060;SDS011;59925;52.136;5.420;2024-03-22T03:15:58;48.53;;;21.13;;
72060;SDS011;59925;52.136;5.420;2024-03-22T03:18:23;36.77;;;19.00;;
72060;SDS011;59925;52.136;5.420;2024-03-22T03:20:49;49.92;;;22.20;;
72060;SDS011;59925;52.136;5.420;2024-03-22T03:23:15;45.67;;;20.20;;
72060;SDS011;59925;52.136;5.420;2024-03-22T03:25:40;39.75;;;20.35;;
72060;SDS011;59925;52.136;5.420;2024-03-22T03:28:06;43.07;;;20.43;;
72060;SDS011;59925;52.136;5.420;2024-03-22T03:30:33;43.92;;;20.45;;
72060;SDS011;59925;52.136;5.420;2024-03-22T03:33:00;50.10;;;20.75;;
72060;SDS011;59925;52.136;5.420;2024-03-22T03:35:25;46.73;;;19.70;;
72060;SDS011;59925;52.136;5.420;2024-03-22T03:37:52;46.30;;;20.83;;
72060;SDS011;59925;52.136;5.420;2024-03-22T03:40:18;52.20;;;22.60;;
72060;SDS011;59925;52.136;5.420;2024-03-22T03:42:43;47.53;;;19.90;;
72060;SDS011;59925;52.136;5.420;2024-03-22T03:45:09;49.53;;;20.90;;
72060;SDS011;59925;52.136;5.420;2024-03-22T03:47:34;47.28;;;19.55;;
72060;SDS011;59925;52.136;5.420;2024-03-22T03:50:00;45.47;;;20.20;;
72060;SDS011;59925;52.136;5.420;2024-03-22T03:52:25;48.37;;;20.00;;
72060;SDS011;59925;52.136;5.420;2024-03-22T03:54:51;44.42;;;19.55;;
72060;SDS011;59925;52.136;5.420;2024-03-22T03:57:16;41.77;;;19.73;;
72060;SDS011;59925;52.136;5.420;2024-03-22T03:59:42;46.90;;;18.27;;
72060;SDS011;59925;52.136;5.420;2024-03-22T04:02:07;44.13;;;18.27;;
72060;SDS011;59925;52.136;5.420;2024-03-22T04:04:33;43.70;;;18.37;;
72060;SDS011;59925;52.136;5.420;2024-03-22T04:06:58;41.97;;;18.17;;
72060;SDS011;59925;52.136;5.420;2024-03-22T04:09:24;45.37;;;18.30;;
72060;SDS011;59925;52.136;5.420;2024-03-22T04:11:49;42.75;;;17.75;;
72060;SDS011;59925;52.136;5.420;2024-03-22T04:14:15;39.00;;;17.60;;
72060;SDS011;59925;52.136;5.420;2024-03-22T04:16:40;40.97;;;17.67;;
72060;SDS011;59925;52.136;5.420;2024-03-22T04:19:06;42.67;;;17.35;;
72060;SDS011;59925;52.136;5.420;2024-03-22T04:21:32;46.75;;;18.00;;
72060;SDS011;59925;52.136;5.420;2024-03-22T04:23:58;41.37;;;18.20;;
72060;SDS011;59925;52.136;5.420;2024-03-22T04:26:23;40.50;;;16.97;;
72060;SDS011;59925;52.136;5.420;2024-03-22T04:28:49;36.78;;;16.48;;
72060;SDS011;59925;52.136;5.420;2024-03-22T04:31:14;38.70;;;16.43;;
72060;SDS011;59925;52.136;5.420;2024-03-22T04:33:41;40.65;;;16.73;;
72060;SDS011;59925;52.136;5.420;2024-03-22T04:36:06;37.20;;;17.13;;
72060;SDS011;59925;52.136;5.420;2024-03-22T04:38:34;41.25;;;17.75;;
72060;SDS011;59925;52.136;5.420;2024-03-22T04:41:00;38.13;;;17.52;;
72060;SDS011;59925;52.136;5.420;2024-03-22T04:43:27;38.90;;;18.47;;
72060;SDS011;59925;52.136;5.420;2024-03-22T04:45:53;40.40;;;17.20;;
72060;SDS011;59925;52.136;5.420;2024-03-22T04:48:22;41.47;;;18.25;;
72060;SDS011;59925;52.136;5.420;2024-03-22T04:50:48;47.23;;;18.67;;
72060;SDS011;59925;52.136;5.420;2024-03-22T04:53:16;35.80;;;16.25;;
72060;SDS011;59925;52.136;5.420;2024-03-22T04:55:42;36.63;;;17.45;;
72060;SDS011;59925;52.136;5.420;2024-03-22T04:58:13;41.20;;;18.10;;
72060;SDS011;59925;52.136;5.420;2024-03-22T05:00:48;39.97;;;17.83;;
72060;SDS011;59925;52.136;5.420;2024-03-22T05:03:15;36.97;;;17.87;;
72060;SDS011;59925;52.136;5.420;2024-03-22T05:05:42;45.40;;;18.50;;
72060;SDS011;59925;52.136;5.420;2024-03-22T05:08:08;42.50;;;19.15;;
72060;SDS011;59925;52.136;5.420;2024-03-22T05:10:34;40.20;;;17.75;;
72060;SDS011;59925;52.136;5.420;2024-03-22T05:13:00;38.93;;;18.17;;
72060;SDS011;59925;52.136;5.420;2024-03-22T05:15:26;47.90;;;19.70;;
72060;SDS011;59925;52.136;5.420;2024-03-22T05:17:52;40.30;;;18.00;;
72060;SDS011;59925;52.136;5.420;2024-03-22T05:20:18;41.65;;;17.73;;
72060;SDS011;59925;52.136;5.420;2024-03-22T05:22:44;40.10;;;17.70;;
72060;SDS011;59925;52.136;5.420;2024-03-22T05:25:10;39.92;;;18.02;;
72060;SDS011;59925;52.136;5.420;2024-03-22T05:27:37;44.88;;;19.70;;
72060;SDS011;59925;52.136;5.420;2024-03-22T05:30:03;45.27;;;20.17;;
72060;SDS011;59925;52.136;5.420;2024-03-22T05:32:29;44.20;;;21.10;;
72060;SDS011;59925;52.136;5.420;2024-03-22T05:34:55;40.17;;;19.53;;
72060;SDS011;59925;52.136;5.420;2024-03-22T05:37:21;39.92;;;18.75;;
72060;SDS011;59925;52.136;5.420;2024-03-22T05:39:46;43.33;;;19.30;;
72060;SDS011;59925;52.136;5.420;2024-03-22T05:42:12;42.20;;;18.55;;
72060;SDS011;59925;52.136;5.420;2024-03-22T05:44:37;41.80;;;18.47;;
72060;SDS011;59925;52.136;5.420;2024-03-22T05:47:03;41.00;;;17.83;;
72060;SDS011;59925;52.136;5.420;2024-03-22T05:49:29;39.40;;;17.52;;
72060;SDS011;59925;52.136;5.420;2024-03-22T05:51:55;39.43;;;17.57;;
72060;SDS011;59925;52.136;5.420;2024-03-22T05:54:20;47.20;;;19.65;;
72060;SDS011;59925;52.136;5.420;2024-03-22T05:56:46;37.80;;;18.20;;
72060;SDS011;59925;52.136;5.420;2024-03-22T05:59:11;40.88;;;17.90;;
72060;SDS011;59925;52.136;5.420;2024-03-22T06:01:37;41.13;;;18.23;;
72060;SDS011;59925;52.136;5.420;2024-03-22T06:04:05;40.08;;;18.40;;
72060;SDS011;59925;52.136;5.420;2024-03-22T06:06:34;36.80;;;17.77;;
72060;SDS011;59925;52.136;5.420;2024-03-22T06:09:01;38.50;;;18.65;;
72060;SDS011;59925;52.136;5.420;2024-03-22T06:11:31;36.50;;;17.27;;
72060;SDS011;59925;52.136;5.420;2024-03-22T06:13:57;37.75;;;16.98;;
72060;SDS011;59925;52.136;5.420;2024-03-22T06:16:22;37.67;;;17.03;;
72060;SDS011;59925;52.136;5.420;2024-03-22T06:18:48;37.03;;;17.90;;
72060;SDS011;59925;52.136;5.420;2024-03-22T06:21:14;36.27;;;17.20;;
72060;SDS011;59925;52.136;5.420;2024-03-22T06:23:50;37.60;;;17.35;;
72060;SDS011;59925;52.136;5.420;2024-03-22T06:26:17;37.60;;;17.67;;
72060;SDS011;59925;52.136;5.420;2024-03-22T06:28:42;42.53;;;16.60;;
72060;SDS011;59925;52.136;5.420;2024-03-22T06:31:08;40.88;;;18.30;;
72060;SDS011;59925;52.136;5.420;2024-03-22T06:33:34;37.37;;;17.17;;
72060;SDS011;59925;52.136;5.420;2024-03-22T06:35:59;38.13;;;16.43;;
72060;SDS011;59925;52.136;5.420;2024-03-22T06:38:26;37.17;;;17.95;;
72060;SDS011;59925;52.136;5.420;2024-03-22T06:40:51;36.65;;;16.17;;
72060;SDS011;59925;52.136;5.420;2024-03-22T06:43:17;34.50;;;16.23;;
72060;SDS011;59925;52.136;5.420;2024-03-22T06:45:42;35.47;;;15.17;;
72060;SDS011;59925;52.136;5.420;2024-03-22T06:48:08;31.92;;;14.55;;
72060;SDS011;59925;52.136;5.420;2024-03-22T06:50:33;36.00;;;15.87;;
72060;SDS011;59925;52.136;5.420;2024-03-22T06:52:59;31.67;;;14.33;;
72060;SDS011;59925;52.136;5.420;2024-03-22T06:55:24;29.27;;;14.07;;
72060;SDS011;59925;52.136;5.420;2024-03-22T06:57:50;29.37;;;14.30;;
72060;SDS011;59925;52.136;5.420;2024-03-22T07:00:17;29.52;;;13.70;;
72060;SDS011;59925;52.136;5.420;2024-03-22T07:02:43;31.73;;;14.00;;
72060;SDS011;59925;52.136;5.420;2024-03-22T07:05:10;26.20;;;13.77;;
72060;SDS011;59925;52.136;5.420;2024-03-22T07:07:36;27.52;;;13.02;;
72060;SDS011;59925;52.136;5.420;2024-03-22T07:10:02;28.55;;;13.40;;
72060;SDS011;59925;52.136;5.420;2024-03-22T07:12:29;30.10;;;13.05;;
72060;SDS011;59925;52.136;5.420;2024-03-22T07:14:59;28.07;;;12.93;;
72060;SDS011;59925;52.136;5.420;2024-03-22T07:17:25;29.52;;;13.23;;
72060;SDS011;59925;52.136;5.420;2024-03-22T07:19:51;32.57;;;14.60;;
72060;SDS011;59925;52.136;5.420;2024-03-22T07:22:17;26.50;;;12.48;;
72060;SDS011;59925;52.136;5.420;2024-03-22T07:24:43;25.40;;;12.27;;
72060;SDS011;59925;52.136;5.420;2024-03-22T07:27:08;28.40;;;13.77;;
72060;SDS011;59925;52.136;5.420;2024-03-22T07:29:34;28.38;;;12.63;;
72060;SDS011;59925;52.136;5.420;2024-03-22T07:32:00;28.13;;;12.40;;
72060;SDS011;59925;52.136;5.420;2024-03-22T07:34:26;28.13;;;11.97;;
72060;SDS011;59925;52.136;5.420;2024-03-22T07:36:51;25.48;;;11.98;;
72060;SDS011;59925;52.136;5.420;2024-03-22T07:39:17;26.60;;;12.33;;
72060;SDS011;59925;52.136;5.420;2024-03-22T07:41:42;27.00;;;11.80;;
72060;SDS011;59925;52.136;5.420;2024-03-22T07:44:08;24.83;;;11.85;;
72060;SDS011;59925;52.136;5.420;2024-03-22T07:46:33;24.07;;;11.63;;
72060;SDS011;59925;52.136;5.420;2024-03-22T07:48:59;25.37;;;11.53;;
72060;SDS011;59925;52.136;5.420;2024-03-22T07:51:24;28.70;;;12.65;;
72060;SDS011;59925;52.136;5.420;2024-03-22T07:53:50;24.07;;;11.00;;
72060;SDS011;59925;52.136;5.420;2024-03-22T07:56:17;29.45;;;12.27;;
72060;SDS011;59925;52.136;5.420;2024-03-22T07:58:43;27.45;;;12.07;;
72060;SDS011;59925;52.136;5.420;2024-03-22T08:01:08;28.23;;;13.30;;
72060;SDS011;59925;52.136;5.420;2024-03-22T08:03:34;29.63;;;13.70;;
72060;SDS011;59925;52.136;5.420;2024-03-22T08:05:59;24.70;;;11.63;;
72060;SDS011;59925;52.136;5.420;2024-03-22T08:08:25;31.03;;;13.27;;
72060;SDS011;59925;52.136;5.420;2024-03-22T08:10:50;31.15;;;14.00;;
72060;SDS011;59925;52.136;5.420;2024-03-22T08:13:16;32.83;;;13.03;;
72060;SDS011;59925;52.136;5.420;2024-03-22T08:15:41;33.83;;;13.37;;
72060;SDS011;59925;52.136;5.420;2024-03-22T08:18:09;25.50;;;12.15;;
72060;SDS011;59925;52.136;5.420;2024-03-22T08:20:34;28.90;;;13.07;;
72060;SDS011;59925;52.136;5.420;2024-03-22T08:23:00;26.77;;;12.93;;
72060;SDS011;59925;52.136;5.420;2024-03-22T08:25:26;28.90;;;12.57;;
72060;SDS011;59925;52.136;5.420;2024-03-22T08:27:51;26.37;;;12.40;;
72060;SDS011;59925;52.136;5.420;2024-03-22T08:30:20;26.67;;;13.02;;
72060;SDS011;59925;52.136;5.420;2024-03-22T08:32:46;26.42;;;12.48;;
72060;SDS011;59925;52.136;5.420;2024-03-22T08:35:12;26.97;;;12.37;;
72060;SDS011;59925;52.136;5.420;2024-03-22T08:37:38;28.13;;;12.73;;
72060;SDS011;59925;52.136;5.420;2024-03-22T08:40:03;27.95;;;11.50;;
72060;SDS011;59925;52.136;5.420;2024-03-22T08:42:29;27.73;;;11.95;;
72060;SDS011;59925;52.136;5.420;2024-03-22T08:44:55;26.50;;;11.50;;
72060;SDS011;59925;52.136;5.420;2024-03-22T08:47:21;25.20;;;11.13;;
72060;SDS011;59925;52.136;5.420;2024-03-22T08:49:46;24.90;;;11.02;;
72060;SDS011;59925;52.136;5.420;2024-03-22T08:52:12;22.20;;;10.07;;
72060;SDS011;59925;52.136;5.420;2024-03-22T08:54:37;26.53;;;10.57;;
72060;SDS011;59925;52.136;5.420;2024-03-22T08:57:03;21.40;;;10.13;;
72060;SDS011;59925;52.136;5.420;2024-03-22T08:59:28;18.83;;;8.90;;
72060;SDS011;59925;52.136;5.420;2024-03-22T09:01:54;22.67;;;9.20;;
72060;SDS011;59925;52.136;5.420;2024-03-22T09:04:19;21.33;;;10.05;;
72060;SDS011;59925;52.136;5.420;2024-03-22T09:06:45;25.80;;;9.73;;
72060;SDS011;59925;52.136;5.420;2024-03-22T09:09:11;18.45;;;9.15;;
72060;SDS011;59925;52.136;5.420;2024-03-22T09:11:36;18.13;;;8.87;;
72060;SDS011;59925;52.136;5.420;2024-03-22T09:14:02;18.23;;;8.07;;
72060;SDS011;59925;52.136;5.420;2024-03-22T09:16:27;21.35;;;8.63;;
72060;SDS011;59925;52.136;5.420;2024-03-22T09:18:53;16.50;;;8.23;;
72060;SDS011;59925;52.136;5.420;2024-03-22T09:21:19;17.05;;;7.88;;
72060;SDS011;59925;52.136;5.420;2024-03-22T09:23:45;16.23;;;7.70;;
72060;SDS011;59925;52.136;5.420;2024-03-22T09:26:10;15.55;;;7.35;;
72060;SDS011;59925;52.136;5.420;2024-03-22T09:28:36;17.43;;;8.10;;
72060;SDS011;59925;52.136;5.420;2024-03-22T09:31:05;14.83;;;7.23;;
72060;SDS011;59925;52.136;5.420;2024-03-22T09:33:32;13.98;;;7.28;;
72060;SDS011;59925;52.136;5.420;2024-03-22T09:35:58;17.60;;;7.88;;
72060;SDS011;59925;52.136;5.420;2024-03-22T09:38:24;15.17;;;8.00;;
72060;SDS011;59925;52.136;5.420;2024-03-22T09:40:50;15.00;;;7.60;;
72060;SDS011;59925;52.136;5.420;2024-03-22T09:43:19;15.63;;;7.97;;
72060;SDS011;59925;52.136;5.420;2024-03-22T09:45:51;15.93;;;8.00;;
72060;SDS011;59925;52.136;5.420;2024-03-22T09:48:18;15.87;;;8.00;;
72060;SDS011;59925;52.136;5.420;2024-03-22T09:50:47;15.52;;;8.05;;
72060;SDS011;59925;52.136;5.420;2024-03-22T09:53:13;16.08;;;7.50;;
72060;SDS011;59925;52.136;5.420;2024-03-22T09:55:44;16.55;;;8.07;;
72060;SDS011;59925;52.136;5.420;2024-03-22T09:58:10;11.95;;;6.88;;
72060;SDS011;59925;52.136;5.420;2024-03-22T10:00:36;14.80;;;6.40;;
72060;SDS011;59925;52.136;5.420;2024-03-22T10:03:01;13.40;;;6.53;;
72060;SDS011;59925;52.136;5.420;2024-03-22T10:05:29;12.85;;;6.28;;
72060;SDS011;59925;52.136;5.420;2024-03-22T10:07:54;11.63;;;6.18;;
72060;SDS011;59925;52.136;5.420;2024-03-22T10:10:20;10.77;;;5.70;;
72060;SDS011;59925;52.136;5.420;2024-03-22T10:12:49;8.55;;;5.55;;
72060;SDS011;59925;52.136;5.420;2024-03-22T10:15:14;12.23;;;5.82;;
72060;SDS011;59925;52.136;5.420;2024-03-22T10:17:42;11.97;;;5.80;;
72060;SDS011;59925;52.136;5.420;2024-03-22T10:20:07;10.85;;;5.20;;
72060;SDS011;59925;52.136;5.420;2024-03-22T10:22:57;10.33;;;5.30;;
72060;SDS011;59925;52.136;5.420;2024-03-22T10:25:27;10.82;;;5.05;;
72060;SDS011;59925;52.136;5.420;2024-03-22T10:27:53;8.30;;;4.90;;
72060;SDS011;59925;52.136;5.420;2024-03-22T10:30:19;9.50;;;5.28;;
72060;SDS011;59925;52.136;5.420;2024-03-22T10:32:45;8.38;;;4.70;;
72060;SDS011;59925;52.136;5.420;2024-03-22T10:35:12;9.63;;;5.00;;
72060;SDS011;59925;52.136;5.420;2024-03-22T10:37:39;9.32;;;5.18;;
72060;SDS011;59925;52.136;5.420;2024-03-22T10:40:05;9.45;;;4.65;;
72060;SDS011;59925;52.136;5.420;2024-03-22T10:42:35;7.63;;;4.73;;
72060;SDS011;59925;52.136;5.420;2024-03-22T10:45:02;7.45;;;4.00;;
72060;SDS011;59925;52.136;5.420;2024-03-22T10:47:29;7.50;;;4.72;;
72060;SDS011;59925;52.136;5.420;2024-03-22T10:49:58;9.95;;;5.15;;
72060;SDS011;59925;52.136;5.420;2024-03-22T10:52:52;9.63;;;5.20;;
72060;SDS011;59925;52.136;5.420;2024-03-22T10:55:27;9.90;;;4.80;;
72060;SDS011;59925;52.136;5.420;2024-03-22T10:57:56;12.02;;;5.03;;
72060;SDS011;59925;52.136;5.420;2024-03-22T11:00:29;11.90;;;4.95;;
72060;SDS011;59925;52.136;5.420;2024-03-22T11:02:55;9.35;;;5.00;;
72060;SDS011;59925;52.136;5.420;2024-03-22T11:05:21;10.80;;;5.38;;
72060;SDS011;59925;52.136;5.420;2024-03-22T11:07:47;10.03;;;5.20;;
72060;SDS011;59925;52.136;5.420;2024-03-22T11:10:13;10.95;;;5.75;;
72060;SDS011;59925;52.136;5.420;2024-03-22T11:12:39;10.23;;;5.53;;
72060;SDS011;59925;52.136;5.420;2024-03-22T11:15:06;11.63;;;5.20;;
72060;SDS011;59925;52.136;5.420;2024-03-22T11:17:32;12.40;;;6.30;;
72060;SDS011;59925;52.136;5.420;2024-03-22T11:19:58;9.93;;;5.65;;
72060;SDS011;59925;52.136;5.420;2024-03-22T11:22:25;11.37;;;5.70;;
72060;SDS011;59925;52.136;5.420;2024-03-22T11:24:51;8.57;;;4.97;;
72060;SDS011;59925;52.136;5.420;2024-03-22T11:27:17;8.77;;;5.70;;
72060;SDS011;59925;52.136;5.420;2024-03-22T11:29:44;10.75;;;5.43;;
72060;SDS011;59925;52.136;5.420;2024-03-22T11:32:11;10.05;;;4.80;;
72060;SDS011;59925;52.136;5.420;2024-03-22T11:34:38;8.13;;;4.30;;
72060;SDS011;59925;52.136;5.420;2024-03-22T11:37:05;8.52;;;4.95;;
72060;SDS011;59925;52.136;5.420;2024-03-22T11:39:38;6.30;;;4.10;;
72060;SDS011;59925;52.136;5.420;2024-03-22T11:42:04;5.65;;;3.60;;
72060;SDS011;59925;52.136;5.420;2024-03-22T11:44:31;5.05;;;3.30;;
72060;SDS011;59925;52.136;5.420;2024-03-22T11:46:58;5.67;;;3.87;;
72060;SDS011;59925;52.136;5.420;2024-03-22T11:49:24;6.90;;;3.58;;
72060;SDS011;59925;52.136;5.420;2024-03-22T11:51:51;4.47;;;2.63;;
72060;SDS011;59925;52.136;5.420;2024-03-22T11:54:19;3.92;;;2.55;;
72060;SDS011;59925;52.136;5.420;2024-03-22T11:56:45;5.25;;;3.28;;
72060;SDS011;59925;52.136;5.420;2024-03-22T11:59:10;5.60;;;2.78;;
72060;SDS011;59925;52.136;5.420;2024-03-22T12:01:36;4.90;;;2.60;;
72060;SDS011;59925;52.136;5.420;2024-03-22T12:04:02;5.47;;;3.00;;
72060;SDS011;59925;52.136;5.420;2024-03-22T12:06:27;5.07;;;2.75;;
72060;SDS011;59925;52.136;5.420;2024-03-22T12:08:53;3.10;;;1.97;;
72060;SDS011;59925;52.136;5.420;2024-03-22T12:11:19;3.08;;;2.00;;
72060;SDS011;59925;52.136;5.420;2024-03-22T12:13:44;4.00;;;2.23;;
72060;SDS011;59925;52.136;5.420;2024-03-22T12:16:10;4.33;;;2.23;;
72060;SDS011;59925;52.136;5.420;2024-03-22T12:18:35;4.18;;;2.15;;
72060;SDS011;59925;52.136;5.420;2024-03-22T12:21:01;3.87;;;2.47;;
72060;SDS011;59925;52.136;5.420;2024-03-22T12:23:27;4.88;;;2.40;;
72060;SDS011;59925;52.136;5.420;2024-03-22T12:25:52;4.30;;;2.43;;
72060;SDS011;59925;52.136;5.420;2024-03-22T12:28:18;3.83;;;2.33;;
72060;SDS011;59925;52.136;5.420;2024-03-22T12:30:45;4.25;;;2.45;;
72060;SDS011;59925;52.136;5.420;2024-03-22T12:33:11;4.65;;;2.90;;
72060;SDS011;59925;52.136;5.420;2024-03-22T12:35:39;5.22;;;3.03;;
72060;SDS011;59925;52.136;5.420;2024-03-22T12:38:06;6.03;;;3.13;;
72060;SDS011;59925;52.136;5.420;2024-03-22T12:40:32;5.85;;;3.33;;
72060;SDS011;59925;52.136;5.420;2024-03-22T12:42:59;6.63;;;4.10;;
72060;SDS011;59925;52.136;5.420;2024-03-22T12:45:24;9.37;;;3.80;;
72060;SDS011;59925;52.136;5.420;2024-03-22T12:47:50;6.43;;;4.15;;
72060;SDS011;59925;52.136;5.420;2024-03-22T12:50:15;8.87;;;4.23;;
72060;SDS011;59925;52.136;5.420;2024-03-22T12:52:41;9.00;;;4.55;;
72060;SDS011;59925;52.136;5.420;2024-03-22T12:55:09;13.48;;;4.78;;
72060;SDS011;59925;52.136;5.420;2024-03-22T12:57:35;10.27;;;4.90;;
72060;SDS011;59925;52.136;5.420;2024-03-22T13:00:00;11.97;;;5.57;;
72060;SDS011;59925;52.136;5.420;2024-03-22T13:02:26;9.05;;;4.90;;
72060;SDS011;59925;52.136;5.420;2024-03-22T13:04:52;9.52;;;5.05;;
72060;SDS011;59925;52.136;5.420;2024-03-22T13:07:21;8.20;;;4.90;;
72060;SDS011;59925;52.136;5.420;2024-03-22T13:09:47;8.82;;;4.38;;
72060;SDS011;59925;52.136;5.420;2024-03-22T13:12:13;7.53;;;4.22;;
72060;SDS011;59925;52.136;5.420;2024-03-22T13:14:38;9.00;;;4.57;;
72060;SDS011;59925;52.136;5.420;2024-03-22T13:17:04;13.77;;;5.43;;
72060;SDS011;59925;52.136;5.420;2024-03-22T13:19:29;13.63;;;4.83;;
72060;SDS011;59925;52.136;5.420;2024-03-22T13:21:55;9.63;;;4.20;;
72060;SDS011;59925;52.136;5.420;2024-03-22T13:24:20;10.23;;;4.83;;
72060;SDS011;59925;52.136;5.420;2024-03-22T13:26:46;9.82;;;4.88;;
72060;SDS011;59925;52.136;5.420;2024-03-22T13:29:12;12.07;;;5.27;;
72060;SDS011;59925;52.136;5.420;2024-03-22T13:31:39;11.05;;;5.38;;
72060;SDS011;59925;52.136;5.420;2024-03-22T13:34:04;11.97;;;5.50;;
72060;SDS011;59925;52.136;5.420;2024-03-22T13:36:30;11.02;;;5.45;;
72060;SDS011;59925;52.136;5.420;2024-03-22T13:38:58;11.57;;;4.73;;
72060;SDS011;59925;52.136;5.420;2024-03-22T13:41:24;10.65;;;5.28;;
72060;SDS011;59925;52.136;5.420;2024-03-22T13:43:49;8.15;;;4.60;;
72060;SDS011;59925;52.136;5.420;2024-03-22T13:46:15;9.60;;;4.57;;
72060;SDS011;59925;52.136;5.420;2024-03-22T13:48:42;9.98;;;5.63;;
72060;SDS011;59925;52.136;5.420;2024-03-22T13:51:08;11.82;;;5.05;;
72060;SDS011;59925;52.136;5.420;2024-03-22T13:53:34;9.17;;;4.63;;
72060;SDS011;59925;52.136;5.420;2024-03-22T13:56:00;11.32;;;4.90;;
72060;SDS011;59925;52.136;5.420;2024-03-22T13:58:26;12.90;;;5.30;;
72060;SDS011;59925;52.136;5.420;2024-03-22T14:00:52;11.85;;;5.70;;
72060;SDS011;59925;52.136;5.420;2024-03-22T14:03:18;14.52;;;5.40;;
72060;SDS011;59925;52.136;5.420;2024-03-22T14:05:43;12.77;;;5.43;;
72060;SDS011;59925;52.136;5.420;2024-03-22T14:08:09;13.18;;;5.95;;
72060;SDS011;59925;52.136;5.420;2024-03-22T14:10:35;11.80;;;5.67;;
72060;SDS011;59925;52.136;5.420;2024-03-22T14:13:00;13.13;;;5.18;;
72060;SDS011;59925;52.136;5.420;2024-03-22T14:15:26;12.07;;;6.05;;
72060;SDS011;59925;52.136;5.420;2024-03-22T14:17:56;12.43;;;5.50;;
72060;SDS011;59925;52.136;5.420;2024-03-22T14:20:22;13.63;;;6.00;;
72060;SDS011;59925;52.136;5.420;2024-03-22T14:22:48;15.07;;;6.05;;